Time;durP1;ratioP1;P1;durP2;ratioP2;P2;SDS_P1;SDS_P2;PMS_P1;PMS_P2;Temp;Humidity;BMP_temperature;BMP_pressure;BME280_temperature;BME280_humidity;BME280_pressure;Samples;Min_cycle;Max_cycle;Signal;HPM_P1;HPM_P2
2022/12/15 00:40:50;;;;;;;4.63;3.10;;;;;;;17.89;35.83;100596.00;16124338;19;129992;-60
2022/12/15 01:20:21;;;;;;;4.55;3.42;;;;;;;17.58;35.97;100606.47;16122713;19;129237;-60
2022/12/15 01:25:42;;;;;;;5.53;3.20;;;;;;;17.55;36.13;100609.75;16125676;19;129395;-60
2022/12/15 01:31:10;;;;;;;4.10;3.25;;;;;;;17.51;35.95;100616.84;16120260;19;130691;-59
2022/12/15 01:36:32;;;;;;;4.47;3.47;;;;;;;17.49;35.87;100613.47;16121201;19;129906;-59
2022/12/15 01:41:54;;;;;;;3.75;3.13;;;;;;;17.46;35.89;100628.63;16116545;19;129991;-60
2022/12/15 01:47:17;;;;;;;3.80;3.17;;;;;;;17.43;35.72;100620.81;16118212;19;130398;-59
2022/12/15 01:52:39;;;;;;;6.40;3.30;;;;;;;17.41;35.66;100634.06;16130576;19;129995;-59
2022/12/15 01:58:07;;;;;;;3.80;3.10;;;;;;;17.38;36.00;100632.63;16136274;19;129505;-59
2022/12/15 02:03:30;;;;;;;4.53;3.40;;;;;;;17.35;35.86;100641.41;16138533;19;129390;-60
2022/12/15 02:08:55;;;;;;;5.38;3.45;;;;;;;17.35;36.12;100643.34;16135148;19;129716;-60
2022/12/15 02:14:43;;;;;;;3.53;3.03;;;;;;;17.30;36.06;100657.06;16137716;19;129577;-60
2022/12/15 02:20:29;;;;;;;3.88;2.97;;;;;;;17.28;35.80;100656.44;16136419;19;129297;-59
2022/12/15 02:26:28;;;;;;;5.90;4.10;;;;;;;17.23;35.87;100655.25;16133308;19;130098;-60
2022/12/15 02:31:58;;;;;;;4.63;3.70;;;;;;;17.18;35.99;100663.44;16132676;19;129848;-60
2022/12/15 02:37:26;;;;;;;7.00;3.58;;;;;;;17.18;35.85;100662.59;16130343;19;129882;-59
2022/12/15 02:42:52;;;;;;;5.55;3.47;;;;;;;17.16;36.01;100659.25;16135044;19;130763;-59
2022/12/15 02:48:17;;;;;;;4.18;3.08;;;;;;;17.13;35.70;100656.97;16132545;19;131585;-59
2022/12/15 02:53:57;;;;;;;6.70;3.33;;;;;;;17.11;35.78;100672.94;16135308;19;130045;-59
2022/12/15 02:59:31;;;;;;;5.15;3.90;;;;;;;17.10;35.54;100674.03;16128788;19;129812;-59
2022/12/15 03:04:53;;;;;;;4.30;3.28;;;;;;;17.07;35.68;100678.13;16134063;19;129357;-60
2022/12/15 03:10:16;;;;;;;5.40;3.80;;;;;;;17.04;35.84;100682.22;16133720;19;129308;-59
2022/12/15 03:15:38;;;;;;;4.20;3.38;;;;;;;17.02;35.41;100676.09;16136795;19;129957;-59
2022/12/15 03:21:00;;;;;;;5.43;3.75;;;;;;;16.99;35.45;100670.19;16131734;19;129732;-59
2022/12/15 03:26:22;;;;;;;3.90;2.88;;;;;;;16.96;35.71;100681.75;16131668;19;129589;-59
2022/12/15 03:31:43;;;;;;;5.53;3.72;;;;;;;16.95;35.44;100682.81;16130360;19;129463;-59
2022/12/15 03:37:05;;;;;;;3.58;3.28;;;;;;;16.92;35.59;100671.16;16131823;19;129647;-60
2022/12/15 03:48:07;;;;;;;3.80;3.08;;;;;;;16.88;35.35;100678.25;16129891;19;130219;-64
2022/12/15 03:53:29;;;;;;;5.20;3.67;;;;;;;16.86;35.60;100674.88;16127337;19;129526;-66
2022/12/15 03:58:51;;;;;;;4.40;3.47;;;;;;;16.84;35.52;100678.97;16129653;19;129857;-66
2022/12/15 04:04:14;;;;;;;6.47;4.10;;;;;;;16.82;35.48;100681.97;16119462;19;130492;-60
2022/12/15 04:09:36;;;;;;;5.60;3.85;;;;;;;16.79;35.28;100693.50;16127505;19;130383;-60
2022/12/15 04:14:57;;;;;;;3.92;3.38;;;;;;;16.76;35.52;100693.97;16125080;19;129588;-60
2022/12/15 04:20:20;;;;;;;5.07;3.28;;;;;;;16.75;35.12;100703.34;16127641;19;129517;-60
2022/12/15 05:33:55;;;;;;;3.92;3.28;;;;;;;16.50;34.86;100740.25;16123344;19;130362;-59
2022/12/15 05:39:25;;;;;;;4.80;3.75;;;;;;;16.48;34.84;100736.91;16120624;19;129523;-59
2022/12/15 05:44:48;;;;;;;4.63;3.80;;;;;;;16.46;35.08;100742.66;16121014;19;130502;-59
2022/12/15 05:50:10;;;;;;;4.57;3.47;;;;;;;16.45;35.09;100745.66;16121376;19;129723;-60
2022/12/15 05:55:31;;;;;;;4.30;3.40;;;;;;;16.44;35.04;100747.56;16122150;19;130120;-60
2022/12/15 06:00:53;;;;;;;4.68;3.15;;;;;;;16.43;34.73;100745.06;16123296;19;130154;-60
2022/12/15 06:06:15;;;;;;;4.90;3.70;;;;;;;16.41;35.08;100748.06;16123026;19;129666;-59
2022/12/15 06:11:37;;;;;;;3.78;2.83;;;;;;;16.41;34.74;100752.72;16120675;19;130058;-60
2022/12/15 06:16:58;;;;;;;5.60;3.40;;;;;;;16.40;34.81;100746.38;16116857;19;129460;-60
2022/12/15 06:22:20;;;;;;;3.90;3.00;;;;;;;16.41;34.52;100741.69;16116162;19;129783;-59
2022/12/15 06:27:42;;;;;;;4.85;3.58;;;;;;;16.41;34.63;100758.25;16119460;19;129468;-59
2022/12/15 06:33:04;;;;;;;3.80;3.40;;;;;;;16.41;34.58;100749.97;16118503;19;129265;-59
2022/12/15 06:38:28;;;;;;;5.30;3.78;;;;;;;16.40;34.64;100751.03;16125545;19;129664;-60
2022/12/15 06:43:51;;;;;;;6.63;3.55;;;;;;;16.40;34.39;100756.56;16134678;19;130695;-60
2022/12/15 06:49:13;;;;;;;5.30;3.38;;;;;;;16.50;34.61;100744.94;16134014;19;129462;-59
2022/12/15 06:54:35;;;;;;;4.15;3.10;;;;;;;17.04;34.02;100731.13;16130252;19;129736;-60
2022/12/15 06:59:56;;;;;;;6.63;3.13;;;;;;;17.73;33.70;100741.50;16130597;19;129724;-60
2022/12/15 07:05:20;;;;;;;4.15;2.88;;;;;;;18.41;32.95;100744.53;16130413;19;134153;-60
2022/12/15 07:10:43;;;;;;;4.32;3.13;;;;;;;19.03;32.45;100741.91;16133616;19;129992;-60
2022/12/15 07:16:06;;;;;;;5.50;3.33;;;;;;;19.57;31.70;100741.34;16134852;19;129593;-60
2022/12/15 07:21:28;;;;;;;5.47;2.80;;;;;;;19.93;31.23;100750.13;16134079;19;129033;-60
2022/12/15 07:26:49;;;;;;;3.53;3.10;;;;;;;20.08;31.21;100754.19;16136041;19;129318;-60
2022/12/15 07:32:11;;;;;;;3.70;3.30;;;;;;;20.12;30.96;100766.47;16134474;19;129739;-60
2022/12/15 07:37:34;;;;;;;4.95;3.30;;;;;;;20.06;30.76;100786.97;16133428;19;133094;-60
2022/12/15 07:42:56;;;;;;;8.55;3.47;;;;;;;19.90;30.87;100783.09;16128382;19;130333;-63
2022/12/15 07:48:18;;;;;;;4.90;3.42;;;;;;;19.74;30.93;100774.59;16126865;19;130091;-62
2022/12/15 07:53:40;;;;;;;6.80;3.03;;;;;;;19.56;31.46;100774.91;16130368;19;129760;-61
2022/12/15 07:59:02;;;;;;;5.32;3.60;;;;;;;19.34;31.69;100765.44;16130347;19;129393;-60
2022/12/15 08:04:24;;;;;;;4.07;3.05;;;;;;;19.16;31.82;100774.84;16130165;19;129144;-60
2022/12/15 08:09:47;;;;;;;9.52;6.80;;;;;;;19.05;31.04;100773.88;16128419;19;129140;-59
2022/12/15 08:15:10;;;;;;;13.70;7.47;;;;;;;19.05;29.80;100779.41;16125630;19;129728;-59
2022/12/15 08:20:32;;;;;;;11.00;6.15;;;;;;;19.29;30.14;100789.50;16127015;19;130192;-59
2022/12/15 08:26:00;;;;;;;10.55;5.68;;;;;;;19.63;30.04;100792.22;16129680;19;129904;-59
2022/12/15 08:31:22;;;;;;;24.63;5.85;;;;;;;19.91;29.85;100796.75;16127185;19;129830;-60
2022/12/15 08:36:44;;;;;;;10.32;6.20;;;;;;;20.23;29.69;100815.47;16128874;19;130442;-62
2022/12/15 08:42:06;;;;;;;19.25;5.97;;;;;;;20.60;29.38;100817.53;16126682;19;129565;-61
2022/12/15 08:47:28;;;;;;;9.80;6.22;;;;;;;20.91;28.71;100822.59;16123079;19;129168;-61
2022/12/15 08:52:49;;;;;;;10.18;5.70;;;;;;;21.10;28.36;100831.38;16124125;19;129559;-61
2022/12/15 08:58:32;;;;;;;20.52;7.18;;;;;;;21.24;28.10;100833.72;16126918;19;129328;-59
2022/12/15 09:03:55;;;;;;;10.43;5.90;;;;;;;21.37;27.76;100848.00;16123653;19;129646;-60
2022/12/15 09:09:17;;;;;;;10.65;5.97;;;;;;;21.48;27.72;100850.84;16126353;19;129574;-61
2022/12/15 09:14:39;;;;;;;14.10;5.50;;;;;;;21.56;27.67;100853.19;16125856;19;129999;-62
2022/12/15 09:20:00;;;;;;;6.20;5.35;;;;;;;21.59;27.94;100858.22;16122842;19;129585;-61
2022/12/15 09:25:22;;;;;;;26.23;20.10;;;;;;;21.28;23.44;100857.94;16124574;19;129396;-61
2022/12/15 09:30:44;;;;;;;31.88;23.25;;;;;;;20.62;21.43;100883.16;16126262;19;129443;-62
2022/12/15 09:36:07;;;;;;;28.55;21.35;;;;;;;20.14;21.27;100876.19;16123097;19;130106;-62
2022/12/15 09:41:32;;;;;;;26.65;18.75;;;;;;;20.29;21.49;100886.69;16123093;19;129633;-62
2022/12/15 09:47:20;;;;;;;24.57;16.23;;;;;;;20.60;21.46;100892.59;16123181;19;130685;-62
2022/12/15 09:52:49;;;;;;;21.73;14.60;;;;;;;20.84;22.63;100897.88;16120982;19;129572;-62
2022/12/15 09:58:32;;;;;;;18.80;12.60;;;;;;;21.02;22.99;100904.19;16123468;19;129964;-61
2022/12/15 10:04:18;;;;;;;17.95;11.90;;;;;;;21.20;22.78;100901.00;16121502;19;132108;-62
2022/12/15 10:09:40;;;;;;;19.77;11.52;;;;;;;21.33;23.80;100891.38;16121766;19;129476;-62
2022/12/15 10:15:17;;;;;;;18.98;10.60;;;;;;;21.48;23.61;100892.59;16135277;19;129233;-61
2022/12/15 10:20:39;;;;;;;15.25;10.85;;;;;;;21.55;24.08;100892.41;16136688;19;129502;-62
2022/12/15 10:26:14;;;;;;;13.27;8.63;;;;;;;21.51;24.07;100892.09;16135069;19;129794;-62
2022/12/15 10:31:42;;;;;;;13.70;9.23;;;;;;;21.34;24.52;100890.28;16134491;19;129532;-62
2022/12/15 10:37:04;;;;;;;22.20;10.88;;;;;;;21.11;24.66;100880.34;16135729;19;129464;-61
2022/12/15 10:42:26;;;;;;;19.10;11.73;;;;;;;20.79;24.68;100888.66;16134821;19;129454;-61
2022/12/15 10:48:02;;;;;;;16.80;10.32;;;;;;;20.44;24.56;100893.50;16134936;19;130780;-63
2022/12/15 10:53:44;;;;;;;15.82;9.95;;;;;;;20.15;24.70;100893.72;16134895;19;129319;-62
2022/12/15 10:59:22;;;;;;;;;;;;;;;19.85;25.17;100897.72;16134387;19;129676;-59
2022/12/15 11:04:58;;;;;;;15.93;9.40;;;;;;;19.65;25.77;100898.22;16134097;19;130454;-58
2022/12/15 11:10:26;;;;;;;16.05;10.63;;;;;;;19.40;26.28;100893.97;16133258;19;129532;-58
2022/12/15 11:15:50;;;;;;;15.13;10.05;;;;;;;19.18;27.24;100882.78;16130295;19;130064;-59
2022/12/15 11:21:26;;;;;;;14.35;10.00;;;;;;;19.04;28.08;100899.72;16129440;19;129493;-60
2022/12/15 11:26:52;;;;;;;16.98;9.63;;;;;;;18.90;28.60;100892.81;16128390;19;130264;-59
2022/12/15 11:32:21;;;;;;;20.50;10.05;;;;;;;18.79;30.05;100891.75;16131084;19;129739;-60
2022/12/15 11:37:46;;;;;;;17.63;9.82;;;;;;;18.76;31.21;100897.81;16135820;19;131975;-62
2022/12/15 11:43:44;;;;;;;16.77;8.98;;;;;;;18.80;31.99;100884.31;16129749;19;129327;-65
2022/12/15 11:49:44;;;;;;;17.40;9.68;;;;;;;18.85;33.59;100865.84;16133041;19;129543;-62
2022/12/15 11:55:16;;;;;;;15.05;8.82;;;;;;;19.06;32.87;100864.28;16129263;19;129309;-61
2022/12/15 12:00:47;;;;;;;19.73;9.20;;;;;;;19.33;31.34;100858.06;16134905;19;131916;-58
2022/12/15 12:06:15;;;;;;;19.05;9.63;;;;;;;19.63;30.83;100856.88;16130734;19;129834;-58
2022/12/15 12:12:10;;;;;;;25.25;9.57;;;;;;;19.93;31.27;100863.97;16134068;19;129647;-59
2022/12/15 12:17:37;;;;;;;22.65;8.55;;;;;;;20.15;31.05;100846.50;16125455;19;129333;-59
2022/12/15 12:23:04;;;;;;;32.53;8.90;;;;;;;20.31;30.37;100846.69;16128315;19;129951;-61
2022/12/15 12:28:45;;;;;;;28.17;8.20;;;;;;;20.36;30.56;100846.72;16126260;19;129951;-60
2022/12/15 12:34:16;;;;;;;32.70;9.35;;;;;;;20.34;30.34;100846.16;16123039;19;129679;-60
2022/12/15 12:39:39;;;;;;;31.80;9.77;;;;;;;20.36;30.62;100842.03;16129297;19;133964;-60
2022/12/15 12:45:01;;;;;;;26.10;8.98;;;;;;;20.43;30.68;100833.50;16127902;19;130406;-59
2022/12/15 12:50:26;;;;;;;34.72;9.45;;;;;;;20.51;30.41;100829.38;16127030;19;129680;-58
2022/12/15 12:55:48;;;;;;;28.33;8.97;;;;;;;20.53;30.65;100819.72;16128111;19;129708;-61
2022/12/15 13:01:11;;;;;;;42.83;10.82;;;;;;;20.50;30.99;100809.09;16125946;19;129623;-58
2022/12/15 13:06:33;;;;;;;21.45;9.10;;;;;;;20.40;31.18;100800.66;16128344;19;130130;-59
2022/12/15 13:11:58;;;;;;;19.65;9.55;;;;;;;20.29;31.50;100803.34;16126730;19;130118;-59
2022/12/15 13:17:38;;;;;;;23.38;8.63;;;;;;;20.17;31.39;100799.00;16126905;19;129421;-59
2022/12/15 13:23:18;;;;;;;27.75;9.10;;;;;;;20.02;31.09;100792.16;16126325;19;129526;-59
2022/12/15 13:28:44;;;;;;;20.80;9.80;;;;;;;19.91;31.66;100784.78;16124579;19;130234;-59
2022/12/15 13:34:13;;;;;;;19.48;9.85;;;;;;;19.82;31.88;100773.28;16123814;19;130035;-59
2022/12/15 13:39:51;;;;;;;27.60;9.68;;;;;;;19.74;31.87;100773.75;16127229;19;129699;-59
2022/12/15 13:45:27;;;;;;;25.63;10.45;;;;;;;19.63;32.32;100765.28;16124762;19;133247;-59
2022/12/15 13:51:08;;;;;;;;;;;;;;;19.51;32.82;100764.56;16139159;19;129467;-60
2022/12/15 13:56:50;;;;;;;23.88;9.57;;;;;;;19.46;32.59;100758.94;16140634;19;130930;-60
2022/12/15 14:02:29;;;;;;;21.33;9.93;;;;;;;19.42;32.78;100744.75;16136766;19;129606;-60
2022/12/15 14:07:55;;;;;;;22.80;9.40;;;;;;;19.36;32.42;100746.63;16135472;19;130534;-60
2022/12/15 14:13:33;;;;;;;19.27;9.93;;;;;;;19.31;33.14;100741.00;16137210;19;130225;-59
2022/12/15 14:19:08;;;;;;;23.35;9.98;;;;;;;19.24;33.34;100747.81;16135698;19;129296;-59
2022/12/15 14:24:32;;;;;;;20.33;9.05;;;;;;;19.18;31.58;100733.03;16138583;19;129729;-59
2022/12/15 14:30:13;;;;;;;19.75;9.75;;;;;;;19.27;31.22;100737.06;16133802;19;129556;-59
2022/12/15 14:35:50;;;;;;;24.45;9.38;;;;;;;19.38;31.43;100744.44;16137840;19;129497;-59
2022/12/15 14:41:20;;;;;;;20.80;9.43;;;;;;;19.50;30.96;100722.13;16134698;19;129055;-59
2022/12/15 14:46:48;;;;;;;21.48;9.55;;;;;;;19.62;30.74;100730.31;16136378;19;129057;-60
2022/12/15 14:52:31;;;;;;;24.77;9.45;;;;;;;19.68;30.68;100720.97;16132978;19;131048;-59
2022/12/15 14:57:53;;;;;;;19.85;9.13;;;;;;;19.69;30.76;100722.63;16133990;19;133585;-59
2022/12/15 15:03:17;;;;;;;18.40;9.88;;;;;;;19.71;30.91;100724.28;16128109;19;131128;-59
2022/12/15 15:08:45;;;;;;;23.23;9.38;;;;;;;19.68;30.46;100717.34;16121937;19;132539;-58
2022/12/15 15:14:19;;;;;;;20.00;9.77;;;;;;;19.66;30.61;100722.31;16124019;19;130469;-59
2022/12/15 15:19:55;;;;;;;28.10;9.65;;;;;;;19.66;29.68;100714.84;16123431;19;129614;-59
2022/12/15 15:25:32;;;;;;;29.38;10.32;;;;;;;19.62;29.51;100721.16;16128615;19;129442;-59
2022/12/15 15:31:09;;;;;;;24.20;9.48;;;;;;;19.49;30.01;100717.69;16125317;19;129567;-60
2022/12/15 15:36:35;;;;;;;27.33;10.20;;;;;;;19.39;29.78;100717.50;16125203;19;130632;-59
2022/12/15 15:42:04;;;;;;;18.15;9.63;;;;;;;19.27;29.67;100717.63;16125010;19;130038;-60
2022/12/15 15:47:26;;;;;;;15.70;9.35;;;;;;;19.16;30.07;100719.38;16123448;19;129718;-59
2022/12/15 15:52:48;;;;;;;22.73;10.02;;;;;;;19.06;29.88;100719.25;16122141;19;129939;-59
2022/12/15 15:58:11;;;;;;;24.35;9.95;;;;;;;19.08;29.58;100736.47;16122447;19;129750;-59
2022/12/15 16:03:34;;;;;;;18.55;9.30;;;;;;;19.23;29.49;100733.09;16123522;19;130284;-59
2022/12/15 16:08:56;;;;;;;22.77;9.13;;;;;;;19.36;29.51;100738.28;16123087;19;129583;-60
2022/12/15 16:14:17;;;;;;;19.20;9.02;;;;;;;19.40;29.41;100740.56;16120820;19;129359;-59
2022/12/15 16:19:39;;;;;;;20.92;9.30;;;;;;;19.41;29.08;100747.78;16122503;19;130247;-59
2022/12/15 16:25:01;;;;;;;16.10;8.50;;;;;;;19.37;29.41;100759.38;16123807;19;131045;-59
2022/12/15 16:30:25;;;;;;;25.10;9.75;;;;;;;19.32;29.45;100753.75;16120040;19;130380;-60
2022/12/15 16:35:48;;;;;;;21.95;8.82;;;;;;;19.29;29.32;100761.75;16123209;19;130801;-60
2022/12/15 16:41:14;;;;;;;24.42;9.10;;;;;;;19.22;29.31;100760.00;16119647;19;131086;-61
2022/12/15 16:46:36;;;;;;;16.92;7.78;;;;;;;19.19;29.49;100759.66;16123576;19;130542;-60
2022/12/15 16:51:58;;;;;;;17.88;8.50;;;;;;;19.14;30.19;100765.13;16120391;19;135367;-59
2022/12/15 16:57:20;;;;;;;20.65;9.05;;;;;;;19.08;29.79;100778.88;16117379;19;129393;-60
2022/12/15 17:02:42;;;;;;;26.25;9.95;;;;;;;19.01;29.69;100767.13;16118603;19;129779;-60
2022/12/15 17:08:05;;;;;;;26.45;10.93;;;;;;;18.94;30.08;100783.13;16116670;19;129609;-62
2022/12/15 17:13:35;;;;;;;24.55;10.38;;;;;;;18.89;30.13;100780.25;16117090;19;129562;-59
2022/12/15 17:19:05;;;;;;;19.70;11.70;;;;;;;18.84;30.08;100791.22;16118137;19;131429;-60
2022/12/15 17:24:27;;;;;;;20.50;10.30;;;;;;;18.73;30.11;100801.31;16115237;19;129276;-60
2022/12/15 17:29:49;;;;;;;24.70;10.25;;;;;;;18.64;30.06;100805.59;16118763;19;130625;-60
2022/12/15 17:35:11;;;;;;;24.52;9.45;;;;;;;18.53;30.24;100816.47;16114045;19;129980;-60
2022/12/15 17:40:33;;;;;;;26.05;9.45;;;;;;;18.44;30.62;100821.59;16116906;19;133608;-60
2022/12/15 17:45:55;;;;;;;17.85;9.13;;;;;;;18.36;30.45;100821.09;16111964;19;129528;-59
2022/12/15 17:51:18;;;;;;;24.52;10.27;;;;;;;18.45;29.63;100831.59;16112982;19;130150;-59
2022/12/15 17:56:42;;;;;;;19.27;9.75;;;;;;;18.82;28.85;100838.63;16115630;19;130262;-59
2022/12/15 18:02:04;;;;;;;21.33;10.60;;;;;;;19.26;28.12;100843.53;16114025;19;129783;-59
2022/12/15 18:07:26;;;;;;;23.52;11.07;;;;;;;19.64;28.05;100841.91;16113817;19;129478;-60
2022/12/15 18:12:48;;;;;;;27.35;11.32;;;;;;;19.95;27.55;100839.53;16115030;19;131052;-62
2022/12/15 18:18:10;;;;;;;35.20;11.82;;;;;;;20.11;27.61;100848.09;16112565;19;129306;-61
2022/12/15 18:23:32;;;;;;;34.47;13.65;;;;;;;20.13;27.38;100843.97;16110267;19;129512;-59
2022/12/15 18:28:55;;;;;;;39.80;11.32;;;;;;;20.04;27.03;100839.13;16114459;19;129602;-61
2022/12/15 18:34:20;;;;;;;31.63;10.73;;;;;;;19.89;27.54;100835.03;16120029;19;131147;-61
2022/12/15 18:39:42;;;;;;;29.53;11.67;;;;;;;19.74;27.17;100857.00;16129048;19;129715;-61
2022/12/15 18:45:14;;;;;;;31.35;12.38;;;;;;;19.67;27.06;100862.75;16049511;19;129861;-60
2022/12/15 18:50:35;;;;;;;24.10;11.90;;;;;;;19.67;27.09;100865.53;16127257;19;130790;-62
2022/12/15 18:56:03;;;;;;;23.70;11.68;;;;;;;19.69;27.19;100860.56;16126033;19;130813;-61
2022/12/15 19:01:24;;;;;;;33.65;12.85;;;;;;;19.66;27.21;100861.91;16124470;19;130322;-61
2022/12/15 19:06:46;;;;;;;35.58;12.55;;;;;;;19.61;26.80;100859.06;16124221;19;129404;-61
2022/12/15 19:12:17;;;;;;;55.20;13.73;;;;;;;19.67;27.29;100874.72;16124780;19;130783;-62
2022/12/15 19:23:19;;;;;;;47.10;14.73;;;;;;;20.26;26.74;100884.41;16122243;19;130601;-61
2022/12/15 19:28:41;;;;;;;58.85;14.13;;;;;;;20.61;26.68;100882.31;16125792;19;129493;-60
2022/12/15 19:34:03;;;;;;;45.97;13.23;;;;;;;20.92;26.78;100870.72;16123999;19;130916;-60
2022/12/15 19:39:25;;;;;;;37.22;12.93;;;;;;;21.15;26.50;100852.81;16124937;19;129399;-59
2022/12/15 19:44:47;;;;;;;48.22;14.52;;;;;;;21.33;26.16;100846.88;16122160;19;129553;-58
2022/12/15 19:50:23;;;;;;;56.60;13.93;;;;;;;21.49;26.07;100825.56;16123210;19;129667;-57
2022/12/15 19:55:45;;;;;;;52.85;14.10;;;;;;;21.47;25.81;100816.63;16121603;19;129681;-58
2022/12/15 20:01:11;;;;;;;44.03;14.07;;;;;;;21.44;25.85;100839.41;16121820;19;130501;-58
2022/12/15 20:06:33;;;;;;;;;;;;;;;21.44;25.84;100833.84;16125789;19;129550;-58
2022/12/15 20:11:54;;;;;;;44.78;12.48;;;;;;;21.56;25.87;100824.47;16126947;19;130045;-59
2022/12/15 20:17:16;;;;;;;31.35;12.80;;;;;;;21.71;25.75;100835.72;16121077;19;129526;-58
2022/12/15 20:22:38;;;;;;;43.88;13.18;;;;;;;21.84;25.43;100831.63;16126246;19;131994;-58
2022/12/15 20:28:00;;;;;;;46.70;12.07;;;;;;;21.98;24.99;100831.97;16125110;19;129956;-58
2022/12/15 20:33:23;;;;;;;37.38;11.80;;;;;;;22.13;24.95;100833.97;16116411;19;131239;-61
2022/12/15 20:38:46;;;;;;;39.25;11.02;;;;;;;22.35;25.39;100847.72;16125160;19;129592;-60
2022/12/15 20:44:11;;;;;;;22.50;9.85;;;;;;;22.59;25.52;100847.25;16124631;19;129658;-60
2022/12/15 20:49:33;;;;;;;37.22;9.80;;;;;;;22.67;25.53;100835.53;16116968;19;134795;-59
2022/12/15 20:54:55;;;;;;;32.45;8.88;;;;;;;22.66;26.42;100828.28;16115271;19;129455;-60
2022/12/15 21:00:17;;;;;;;38.55;9.23;;;;;;;22.53;27.07;100812.09;16116890;19;131231;-56
2022/12/15 21:05:39;;;;;;;35.28;8.70;;;;;;;22.33;26.96;100813.72;16120336;19;129459;-53
2022/12/15 21:11:23;;;;;;;34.92;8.15;;;;;;;22.09;27.78;100811.38;16114621;19;130878;-49
2022/12/15 21:16:45;;;;;;;26.77;7.82;;;;;;;21.86;28.18;100811.84;16117998;19;129417;-57
2022/12/15 21:22:23;;;;;;;24.90;7.45;;;;;;;21.64;28.34;100818.44;16115370;19;130017;-60
2022/12/15 21:27:45;;;;;;;16.42;6.70;;;;;;;21.39;28.85;100803.22;16116053;19;129993;-60
2022/12/15 21:33:07;;;;;;;17.92;6.70;;;;;;;21.18;28.97;100808.63;16112665;19;131303;-60
2022/12/15 21:38:38;;;;;;;20.92;6.70;;;;;;;20.98;29.02;100814.03;16118593;19;129982;-60
2022/12/15 21:44:00;;;;;;;15.75;6.50;;;;;;;20.75;29.69;100822.44;16117112;19;129608;-61
2022/12/15 21:49:23;;;;;;;14.68;6.25;;;;;;;20.57;29.78;100820.84;16118166;19;129188;-60
2022/12/15 21:54:44;;;;;;;12.75;6.35;;;;;;;20.43;30.06;100823.22;16117546;19;129531;-60
2022/12/15 22:00:11;;;;;;;16.20;6.63;;;;;;;20.32;29.95;100834.44;16118095;19;130099;-60
2022/12/15 22:05:33;;;;;;;15.48;6.28;;;;;;;20.18;30.38;100828.47;16118192;19;129884;-61
2022/12/15 22:10:54;;;;;;;11.13;6.15;;;;;;;20.06;30.22;100836.94;16131838;19;130552;-61
2022/12/15 22:16:16;;;;;;;11.23;6.05;;;;;;;19.94;30.58;100846.19;16130996;19;130237;-61
2022/12/15 22:21:40;;;;;;;11.52;5.53;;;;;;;19.82;30.16;100864.91;16131886;19;132611;-61
2022/12/15 22:27:02;;;;;;;11.57;5.60;;;;;;;19.67;30.78;100852.50;16130371;19;129956;-61
2022/12/15 22:32:24;;;;;;;12.13;5.93;;;;;;;19.55;30.60;100860.09;16130509;19;130549;-61
2022/12/15 22:37:48;;;;;;;10.40;5.20;;;;;;;19.47;30.97;100877.16;16129030;19;130570;-61
2022/12/15 22:43:29;;;;;;;8.23;5.20;;;;;;;19.36;31.12;100878.94;16127569;19;131329;-61
2022/12/15 22:48:52;;;;;;;13.20;5.88;;;;;;;19.27;30.78;100875.75;16127725;19;129349;-61
2022/12/15 22:54:20;;;;;;;8.90;5.00;;;;;;;19.17;31.16;100881.09;16129937;19;129254;-61
2022/12/15 22:59:49;;;;;;;8.05;5.05;;;;;;;19.12;31.14;100890.16;16128787;19;131363;-60
2022/12/15 23:05:15;;;;;;;6.75;4.60;;;;;;;19.03;31.12;100881.41;16127533;19;129528;-63
2022/12/15 23:16:18;;;;;;;7.25;4.50;;;;;;;18.89;31.35;100888.34;16126707;19;129939;-60
2022/12/15 23:21:40;;;;;;;6.97;4.55;;;;;;;18.82;31.57;100879.38;16125849;19;130098;-59
2022/12/15 23:27:02;;;;;;;6.05;4.30;;;;;;;18.76;31.42;100873.72;16124179;19;130934;-59
2022/12/15 23:32:24;;;;;;;8.93;4.90;;;;;;;18.72;31.29;100886.38;16124652;19;129319;-61
2022/12/15 23:37:45;;;;;;;7.22;4.80;;;;;;;18.67;31.49;100893.75;16126577;19;129490;-60
2022/12/15 23:43:07;;;;;;;6.38;4.28;;;;;;;18.62;31.65;100886.19;16127652;19;130128;-60
2022/12/15 23:48:32;;;;;;;5.65;4.25;;;;;;;18.59;31.63;100889.44;16126107;19;130118;-62
2022/12/15 23:53:54;;;;;;;6.53;4.17;;;;;;;18.53;31.38;100880.19;16124855;19;129771;-66
2022/12/15 23:59:16;;;;;;;6.72;4.35;;;;;;;18.49;31.41;100881.78;16126806;19;129312;-67
